Time;durP1;ratioP1;P1;durP2;ratioP2;P2;SDS_P1;SDS_P2;PMS_P1;PMS_P2;Temp;Humidity;BMP_temperature;BMP_pressure;BME280_temperature;BME280_humidity;BME280_pressure;Samples;Min_cycle;Max_cycle;Signal;HPM_P1;HPM_P2
2021/07/21 00:01:35;;;;;;;15.32;12.73;;;25.50;59.30;;;;;;4931756;28;92923;-25
2021/07/21 00:04:01;;;;;;;16.05;12.70;;;25.50;59.30;;;;;;4930763;28;93197;-21
2021/07/21 00:06:27;;;;;;;14.25;11.75;;;25.50;59.30;;;;;;4930414;28;94230;-24
2021/07/21 00:08:52;;;;;;;15.05;12.23;;;25.50;59.80;;;;;;4930688;28;93264;-25
2021/07/21 00:14:09;;;;;;;14.43;11.82;;;25.50;59.40;;;;;;4931126;28;93097;-24
2021/07/21 00:16:37;;;;;;;15.00;11.73;;;25.50;59.90;;;;;;4930689;28;92856;-24
2021/07/21 00:20:05;;;;;;;14.10;11.95;;;25.50;59.40;;;;;;4930621;28;92878;-24
2021/07/21 00:21:51;;;;;;;14.70;11.68;;;25.50;59.40;;;;;;4930219;28;93107;-25
2021/07/21 00:24:16;;;;;;;14.82;12.27;;;25.50;59.50;;;;;;4930502;28;92590;-22
2021/07/21 00:26:42;;;;;;;15.30;11.88;;;25.50;59.50;;;;;;4930065;28;93175;-24
2021/07/21 00:29:07;;;;;;;14.07;11.80;;;25.50;59.50;;;;;;4930017;28;94353;-25
2021/07/21 00:31:33;;;;;;;15.98;12.38;;;25.40;59.40;;;;;;4929324;28;93436;-25
2021/07/21 00:33:58;;;;;;;15.52;12.27;;;25.40;59.50;;;;;;4930292;28;93601;-24
2021/07/21 00:36:26;;;;;;;13.68;11.40;;;25.40;59.50;;;;;;4930462;28;94351;-25
2021/07/21 00:38:52;;;;;;;14.30;11.40;;;25.50;59.50;;;;;;4930429;28;93174;-23
2021/07/21 00:41:18;;;;;;;14.93;12.25;;;25.40;59.50;;;;;;4930829;28;92943;-22
2021/07/21 00:43:44;;;;;;;15.18;11.70;;;25.40;59.50;;;;;;4930622;28;93104;-24
2021/07/21 00:46:09;;;;;;;14.70;12.23;;;25.40;59.50;;;;;;4929954;28;93176;-24
2021/07/21 00:48:35;;;;;;;15.05;12.15;;;25.40;59.50;;;;;;4930430;28;92766;-22
2021/07/21 00:51:03;;;;;;;14.50;11.90;;;25.40;59.60;;;;;;4930231;28;92212;-24
2021/07/21 00:53:30;;;;;;;15.20;12.07;;;25.40;59.60;;;;;;4930720;28;93153;-24
2021/07/21 00:55:55;;;;;;;15.88;12.52;;;25.40;59.60;;;;;;4929657;28;94351;-25
2021/07/21 00:58:21;;;;;;;14.50;11.38;;;25.40;59.60;;;;;;4930364;28;92739;-22
2021/07/21 01:00:47;;;;;;;14.48;11.50;;;25.40;59.60;;;;;;4929333;28;93179;-24
2021/07/21 01:03:13;;;;;;;14.32;11.60;;;25.40;59.60;;;;;;4930863;28;93384;-21
2021/07/21 01:05:42;;;;;;;14.70;11.48;;;25.40;59.60;;;;;;4929757;28;94089;-24
2021/07/21 01:08:12;;;;;;;14.07;11.15;;;25.40;59.60;;;;;;4929935;28;92947;-27
2021/07/21 01:10:43;;;;;;;13.90;11.30;;;25.40;59.60;;;;;;4929676;28;93288;-24
2021/07/21 01:13:08;;;;;;;13.27;10.95;;;25.30;59.60;;;;;;4930987;28;92387;-23
2021/07/21 01:15:42;;;;;;;13.48;11.27;;;25.30;59.60;;;;;;4930154;28;94000;-23
2021/07/21 01:18:23;;;;;;;14.48;11.32;;;25.30;59.60;;;;;;4930091;28;93324;-25
2021/07/21 01:20:54;;;;;;;14.60;11.73;;;25.30;59.60;;;;;;4929667;28;94220;-23
2021/07/21 01:23:44;;;;;;;13.85;11.32;;;25.30;59.70;;;;;;4929957;28;93281;-21
2021/07/21 01:26:13;;;;;;;14.77;11.88;;;25.30;59.70;;;;;;4929651;28;94635;-24
2021/07/21 01:28:42;;;;;;;15.40;11.68;;;25.30;59.70;;;;;;4929797;28;94017;-24
2021/07/21 01:31:12;;;;;;;14.45;12.00;;;25.30;59.70;;;;;;4930198;28;93079;-22
2021/07/21 01:33:41;;;;;;;14.63;11.45;;;25.30;59.70;;;;;;4930437;28;92929;-23
2021/07/21 01:36:19;;;;;;;13.73;11.07;;;25.30;59.80;;;;;;4929726;28;92812;-22
2021/07/21 01:38:50;;;;;;;13.88;11.82;;;25.30;59.80;;;;;;4929403;28;93008;-23
2021/07/21 01:41:21;;;;;;;14.43;11.20;;;25.30;59.80;;;;;;4928880;28;92547;-23
2021/07/21 01:43:49;;;;;;;13.88;11.40;;;25.30;59.80;;;;;;4929420;28;93146;-24
2021/07/21 01:46:20;;;;;;;13.75;11.48;;;25.30;59.80;;;;;;4928699;28;94388;-20
2021/07/21 01:48:46;;;;;;;13.95;11.38;;;25.30;59.80;;;;;;4929171;28;94007;-24
2021/07/21 01:51:13;;;;;;;13.25;10.95;;;25.30;59.80;;;;;;4928871;28;92560;-23
2021/07/21 01:53:44;;;;;;;13.18;11.18;;;25.30;59.90;;;;;;4928833;28;92828;-23
2021/07/21 01:56:11;;;;;;;15.00;11.65;;;25.30;60.40;;;;;;4928393;28;93342;-25
2021/07/21 01:58:38;;;;;;;13.85;10.90;;;25.20;59.80;;;;;;4928468;28;92705;-21
2021/07/21 02:01:06;;;;;;;13.15;10.60;;;25.20;59.80;;;;;;4929163;28;93167;-24
2021/07/21 02:03:33;;;;;;;14.10;11.57;;;25.30;59.90;;;;;;4929790;28;92145;-21
2021/07/21 02:06:01;;;;;;;12.98;10.45;;;25.20;59.90;;;;;;4929164;28;92927;-24
2021/07/21 02:08:27;;;;;;;13.27;10.45;;;25.20;59.90;;;;;;4929093;28;93130;-24
2021/07/21 02:10:57;;;;;;;12.80;10.38;;;25.20;59.90;;;;;;4928716;28;93154;-24
2021/07/21 02:13:25;;;;;;;12.52;11.20;;;25.20;59.90;;;;;;4929501;28;92277;-24
2021/07/21 02:15:51;;;;;;;15.50;11.80;;;25.20;59.90;;;;;;4929452;28;93163;-23
2021/07/21 02:18:19;;;;;;;14.13;11.52;;;25.20;59.90;;;;;;4929375;28;92990;-24
2021/07/21 02:20:46;;;;;;;12.45;10.13;;;25.20;59.90;;;;;;4929689;28;92982;-20
2021/07/21 02:23:13;;;;;;;13.13;11.15;;;25.20;60.00;;;;;;4929603;28;92921;-23
2021/07/21 02:25:39;;;;;;;15.13;11.70;;;25.20;60.00;;;;;;4929496;28;93247;-24
2021/07/21 02:28:04;;;;;;;13.15;10.85;;;25.20;60.00;;;;;;4929563;28;92424;-23
2021/07/21 02:30:30;;;;;;;12.90;10.20;;;25.20;60.00;;;;;;4928810;28;92773;-23
2021/07/21 02:33:12;;;;;;;13.07;10.95;;;25.20;60.50;;;;;;4928296;28;93554;-23
2021/07/21 02:35:37;;;;;;;13.30;10.90;;;25.20;60.00;;;;;;4927902;28;93758;-23
2021/07/21 02:38:03;;;;;;;14.52;11.30;;;25.20;60.10;;;;;;4928788;28;93871;-26
2021/07/21 02:40:29;;;;;;;14.02;11.07;;;25.10;60.00;;;;;;4927527;28;92884;-22
2021/07/21 02:42:55;;;;;;;12.35;10.45;;;25.10;60.00;;;;;;4929270;28;92309;-24
2021/07/21 02:45:21;;;;;;;12.48;10.70;;;25.10;60.00;;;;;;4928687;28;93323;-21
2021/07/21 02:47:46;;;;;;;12.73;10.52;;;25.10;60.00;;;;;;4929060;28;92392;-24
2021/07/21 02:50:16;;;;;;;14.18;11.40;;;25.10;60.00;;;;;;4929215;28;92770;-25
2021/07/21 02:53:06;;;;;;;12.75;10.80;;;25.10;60.10;;;;;;4929009;28;92554;-24
2021/07/21 02:55:42;;;;;;;12.85;10.50;;;25.10;60.00;;;;;;4927803;28;93259;-23
2021/07/21 02:58:29;;;;;;;13.43;10.75;;;25.10;60.00;;;;;;4928211;28;93099;-24
2021/07/21 03:00:58;;;;;;;12.93;10.38;;;25.10;60.10;;;;;;4927543;28;93425;-23
2021/07/21 03:03:26;;;;;;;13.98;10.93;;;25.10;60.00;;;;;;4927621;28;92715;-23
2021/07/21 03:05:56;;;;;;;13.30;10.88;;;25.10;60.20;;;;;;4927822;28;95116;-21
2021/07/21 03:08:25;;;;;;;13.57;10.75;;;25.10;60.10;;;;;;4927088;28;92909;-21
2021/07/21 03:10:54;;;;;;;12.40;10.35;;;25.10;60.10;;;;;;4928299;28;92667;-24
2021/07/21 03:13:23;;;;;;;13.55;10.80;;;25.10;60.10;;;;;;4928614;28;92401;-21
2021/07/21 03:15:50;;;;;;;12.52;10.45;;;25.10;60.10;;;;;;4928770;28;92285;-22
2021/07/21 03:18:20;;;;;;;12.90;10.45;;;25.10;60.20;;;;;;4928850;28;92638;-25
2021/07/21 03:20:48;;;;;;;12.48;10.15;;;25.10;60.20;;;;;;4927888;28;92876;-24
2021/07/21 03:23:14;;;;;;;12.90;10.35;;;25.10;60.20;;;;;;4928252;28;92813;-22
2021/07/21 03:25:42;;;;;;;12.98;10.25;;;25.10;60.20;;;;;;4926549;28;94736;-22
2021/07/21 03:28:08;;;;;;;14.02;11.38;;;25.10;60.20;;;;;;4928704;28;93304;-25
2021/07/21 03:30:35;;;;;;;14.23;11.38;;;25.10;60.20;;;;;;4928699;28;93267;-22
2021/07/21 03:33:05;;;;;;;14.68;11.18;;;25.10;60.20;;;;;;4927547;28;92470;-23
2021/07/21 03:35:33;;;;;;;13.65;10.80;;;25.00;60.20;;;;;;4927788;28;93184;-24
2021/07/21 03:38:00;;;;;;;13.30;10.68;;;25.00;60.20;;;;;;4928113;28;92919;-24
2021/07/21 03:40:26;;;;;;;12.48;9.75;;;25.00;60.20;;;;;;4928922;28;92716;-21
2021/07/21 03:42:53;;;;;;;12.52;10.07;;;25.00;60.30;;;;;;4929070;28;92091;-21
2021/07/21 03:45:21;;;;;;;12.77;10.45;;;25.00;60.30;;;;;;4927499;28;93215;-23
2021/07/21 03:47:47;;;;;;;12.27;10.52;;;25.10;60.30;;;;;;4928392;28;92991;-21
2021/07/21 03:50:16;;;;;;;11.90;10.20;;;25.00;60.30;;;;;;4927120;28;94141;-24
2021/07/21 03:52:45;;;;;;;13.40;10.20;;;25.00;60.30;;;;;;4927103;28;92781;-24
2021/07/21 03:55:14;;;;;;;12.13;9.98;;;25.00;60.30;;;;;;4926912;28;94740;-23
2021/07/21 03:57:40;;;;;;;12.10;10.00;;;25.00;60.30;;;;;;4927104;28;93083;-21
2021/07/21 04:00:17;;;;;;;13.45;10.52;;;25.00;60.30;;;;;;4927541;28;92429;-24
2021/07/21 04:02:49;;;;;;;13.52;10.65;;;25.00;60.40;;;;;;4927276;28;93084;-24
2021/07/21 04:05:15;;;;;;;13.27;10.68;;;25.00;60.40;;;;;;4926744;28;93244;-21
2021/07/21 04:07:43;;;;;;;13.02;10.18;;;25.00;60.40;;;;;;4927183;28;93265;-24
2021/07/21 04:10:10;;;;;;;12.55;10.15;;;25.00;60.40;;;;;;4927720;28;92842;-24
2021/07/21 04:12:42;;;;;;;12.93;10.10;;;25.00;60.40;;;;;;4927070;28;92754;-24
2021/07/21 04:15:09;;;;;;;13.10;10.60;;;24.90;60.40;;;;;;4928937;28;93726;-24
2021/07/21 04:17:36;;;;;;;11.25;9.57;;;24.90;60.40;;;;;;4929945;28;93379;-24
2021/07/21 04:20:05;;;;;;;12.70;10.38;;;24.90;60.40;;;;;;4931655;28;92760;-24
2021/07/21 04:22:32;;;;;;;13.07;10.48;;;25.00;60.50;;;;;;4931204;28;92275;-22
2021/07/21 04:24:59;;;;;;;12.90;10.23;;;24.90;60.40;;;;;;4930947;28;93458;-25
2021/07/21 04:27:26;;;;;;;12.23;10.07;;;25.00;60.50;;;;;;4930421;28;92875;-23
2021/07/21 04:29:52;;;;;;;12.18;10.00;;;24.90;60.40;;;;;;4930002;28;92460;-21
2021/07/21 04:32:23;;;;;;;11.82;9.70;;;24.90;60.50;;;;;;4930125;28;91374;-24
2021/07/21 04:34:50;;;;;;;12.50;9.85;;;25.00;60.50;;;;;;4930427;28;93506;-24
2021/07/21 04:37:17;;;;;;;12.25;9.65;;;24.90;60.40;;;;;;4930802;28;93238;-22
2021/07/21 04:39:43;;;;;;;12.63;10.25;;;25.00;60.50;;;;;;4931034;28;93504;-23
2021/07/21 04:42:10;;;;;;;12.70;9.98;;;24.90;60.50;;;;;;4930967;28;92699;-24
2021/07/21 04:44:37;;;;;;;13.15;10.40;;;25.00;60.50;;;;;;4930288;28;95476;-23
2021/07/21 04:47:03;;;;;;;11.52;9.18;;;24.90;60.40;;;;;;4930678;28;92367;-23
2021/07/21 04:49:30;;;;;;;11.43;8.95;;;24.90;60.50;;;;;;4931641;28;92217;-23
2021/07/21 04:52:03;;;;;;;11.25;9.07;;;25.00;60.50;;;;;;4930835;28;92867;-23
2021/07/21 04:54:28;;;;;;;11.90;9.18;;;25.00;60.50;;;;;;4928814;28;95824;-21
2021/07/21 04:56:55;;;;;;;14.57;9.02;;;24.90;59.70;;;;;;4929791;28;92816;-24
2021/07/21 04:59:21;;;;;;;13.95;9.15;;;24.90;58.80;;;;;;4930671;28;92944;-22
2021/07/21 05:01:48;;;;;;;14.48;9.35;;;25.00;57.50;;;;;;4930793;28;93117;-23
2021/07/21 05:04:14;;;;;;;12.05;8.85;;;24.90;56.60;;;;;;4929211;28;94196;-21
2021/07/21 05:06:40;;;;;;;13.75;9.45;;;24.80;55.80;;;;;;4929750;28;93648;-24
2021/07/21 05:09:06;;;;;;;11.93;8.10;;;24.80;55.90;;;;;;4930005;28;93054;-23
2021/07/21 05:11:32;;;;;;;15.40;9.30;;;24.80;56.00;;;;;;4929531;28;92265;-21
2021/07/21 05:13:58;;;;;;;12.50;9.18;;;24.80;56.00;;;;;;4928262;28;97112;-24
2021/07/21 05:16:24;;;;;;;13.63;8.75;;;24.80;56.10;;;;;;4930134;28;92868;-22
2021/07/21 05:18:50;;;;;;;12.32;8.88;;;24.80;56.10;;;;;;4930658;28;92776;-22
2021/07/21 05:21:16;;;;;;;13.45;8.70;;;24.80;55.90;;;;;;4931388;28;91862;-24
2021/07/21 05:23:42;;;;;;;14.27;9.63;;;24.80;55.90;;;;;;4930193;28;93832;-21
2021/07/21 05:26:08;;;;;;;12.52;8.95;;;24.80;55.90;;;;;;4928459;28;92751;-24
2021/07/21 05:28:37;;;;;;;12.90;8.88;;;24.80;55.80;;;;;;4929700;28;93421;-26
2021/07/21 05:31:03;;;;;;;13.93;9.57;;;24.90;55.70;;;;;;4930411;28;92698;-24
2021/07/21 05:33:29;;;;;;;13.10;9.35;;;24.90;55.50;;;;;;4929734;28;93227;-23
2021/07/21 05:35:54;;;;;;;14.95;9.25;;;24.90;55.40;;;;;;4930020;28;93261;-22
2021/07/21 05:38:20;;;;;;;15.27;8.95;;;24.90;55.40;;;;;;4930223;28;92870;-23
2021/07/21 05:40:46;;;;;;;14.35;8.95;;;24.80;55.40;;;;;;4930037;28;92949;-23
2021/07/21 05:43:12;;;;;;;15.80;9.82;;;24.90;55.50;;;;;;4929817;28;93689;-22
2021/07/21 05:45:38;;;;;;;14.85;10.13;;;24.90;55.20;;;;;;4930018;28;93047;-24
2021/07/21 05:48:04;;;;;;;17.95;11.27;;;24.80;54.50;;;;;;4929189;28;92824;-21
2021/07/21 05:50:30;;;;;;;17.42;11.13;;;24.80;54.30;;;;;;4928530;28;92465;-25
2021/07/21 05:52:56;;;;;;;18.23;11.55;;;24.80;54.30;;;;;;4927496;28;95442;-24
2021/07/21 05:55:22;;;;;;;16.05;11.20;;;24.70;54.30;;;;;;4929272;28;93853;-25
2021/07/21 05:57:47;;;;;;;15.75;11.45;;;24.70;54.40;;;;;;4929294;28;92581;-21
2021/07/21 06:00:13;;;;;;;16.17;11.13;;;24.70;54.40;;;;;;4929196;28;93098;-23
2021/07/21 06:02:39;;;;;;;17.08;11.05;;;24.70;54.60;;;;;;4928948;28;93353;-22
2021/07/21 06:05:06;;;;;;;15.93;10.02;;;24.60;54.50;;;;;;4929226;28;94119;-24
2021/07/21 06:07:32;;;;;;;14.40;10.52;;;24.60;54.60;;;;;;4929411;28;92526;-25
2021/07/21 06:09:58;;;;;;;16.10;10.18;;;24.60;54.70;;;;;;4929636;28;92173;-25
2021/07/21 06:12:24;;;;;;;14.77;10.02;;;24.60;54.60;;;;;;4928351;28;93374;-24
2021/07/21 06:14:49;;;;;;;14.05;9.98;;;24.70;54.60;;;;;;4929020;28;93419;-23
2021/07/21 06:17:16;;;;;;;16.80;10.43;;;24.60;54.60;;;;;;4926104;28;93493;-23
2021/07/21 06:19:41;;;;;;;14.50;10.32;;;24.60;54.80;;;;;;4928735;28;92200;-23
2021/07/21 06:22:07;;;;;;;17.40;10.75;;;24.70;55.00;;;;;;4928115;28;94561;-25
2021/07/21 06:24:34;;;;;;;19.42;10.07;;;24.70;55.10;;;;;;4928814;28;93125;-24
2021/07/21 06:27:00;;;;;;;20.45;10.00;;;24.70;55.60;;;;;;4927941;28;92863;-26
2021/07/21 06:29:26;;;;;;;21.45;10.25;;;24.80;55.30;;;;;;4927407;28;92837;-23
2021/07/21 06:31:52;;;;;;;18.00;10.30;;;24.80;55.20;;;;;;4927173;28;93226;-26
2021/07/21 06:34:18;;;;;;;19.08;9.23;;;24.80;55.10;;;;;;4928128;28;94152;-23
2021/07/21 06:36:44;;;;;;;15.63;8.77;;;24.80;54.90;;;;;;4926492;28;93364;-26
2021/07/21 06:39:10;;;;;;;15.48;10.07;;;24.80;55.00;;;;;;4928686;28;93061;-25
2021/07/21 06:41:35;;;;;;;14.95;8.90;;;24.80;55.00;;;;;;4926475;28;94059;-25
2021/07/21 06:44:01;;;;;;;15.77;9.73;;;24.80;55.00;;;;;;4928291;28;93810;-24
2021/07/21 06:46:28;;;;;;;15.10;8.57;;;24.80;54.80;;;;;;4929222;28;93257;-25
2021/07/21 06:48:54;;;;;;;12.05;8.23;;;24.90;54.80;;;;;;4928823;28;92207;-25
2021/07/21 06:51:20;;;;;;;14.43;7.95;;;24.80;54.60;;;;;;4885147;28;93419;-24
2021/07/21 06:53:46;;;;;;;20.98;9.35;;;24.80;54.50;;;;;;4937446;28;92949;-22
2021/07/21 06:56:13;;;;;;;13.00;7.78;;;24.80;54.60;;;;;;4927619;28;93376;-24
2021/07/21 06:58:38;;;;;;;14.15;8.15;;;24.90;54.90;;;;;;4928110;28;91567;-25
2021/07/21 07:01:04;;;;;;;12.43;7.80;;;24.90;55.00;;;;;;4927660;28;93569;-21
2021/07/21 07:03:30;;;;;;;10.50;7.07;;;24.90;55.10;;;;;;4927310;28;93955;-25
2021/07/21 07:05:56;;;;;;;48.67;14.30;;;24.90;55.20;;;;;;4928133;28;93971;-25
2021/07/21 07:08:22;;;;;;;50.85;16.08;;;24.90;55.20;;;;;;4927487;28;92727;-24
2021/07/21 07:10:47;;;;;;;51.45;12.98;;;25.00;55.10;;;;;;4927325;28;92582;-24
2021/07/21 07:13:13;;;;;;;54.08;15.57;;;25.00;55.20;;;;;;4927608;28;93519;-24
2021/07/21 07:15:39;;;;;;;54.17;13.38;;;25.00;55.20;;;;;;4928054;28;92195;-23
2021/07/21 07:18:06;;;;;;;33.50;12.30;;;25.00;55.10;;;;;;4927424;28;92557;-24
2021/07/21 07:20:32;;;;;;;26.35;11.27;;;25.00;54.50;;;;;;4926453;28;92678;-24
2021/07/21 07:22:58;;;;;;;32.80;11.52;;;25.00;54.10;;;;;;4925929;28;92658;-23
2021/07/21 07:25:24;;;;;;;23.20;9.63;;;24.90;54.00;;;;;;4927764;28;93251;-24
2021/07/21 07:27:49;;;;;;;32.55;9.25;;;24.90;54.30;;;;;;4928564;28;92151;-28
2021/07/21 07:30:15;;;;;;;27.00;9.52;;;24.90;54.30;;;;;;4927168;28;94121;-25
2021/07/21 07:32:41;;;;;;;22.17;9.52;;;24.90;54.40;;;;;;4928122;28;93446;-23
2021/07/21 07:35:08;;;;;;;22.45;9.45;;;24.90;54.40;;;;;;4927817;28;93016;-24
2021/07/21 07:37:34;;;;;;;28.30;8.85;;;24.90;54.60;;;;;;4927713;28;92737;-24
2021/07/21 07:39:59;;;;;;;17.95;8.55;;;24.90;54.60;;;;;;4927792;28;93251;-22
2021/07/21 07:42:25;;;;;;;19.15;8.95;;;24.80;54.60;;;;;;4927166;28;93554;-26
2021/07/21 07:44:51;;;;;;;16.30;7.93;;;24.80;54.80;;;;;;4927208;28;93311;-24
2021/07/21 07:47:16;;;;;;;15.20;7.78;;;24.80;55.10;;;;;;4927790;28;92128;-23
2021/07/21 07:49:42;;;;;;;17.85;8.23;;;24.90;55.50;;;;;;4930027;28;93780;-24
2021/07/21 07:52:08;;;;;;;13.98;7.43;;;24.90;55.50;;;;;;4930950;28;93596;-24
2021/07/21 07:54:34;;;;;;;14.55;7.78;;;24.90;55.40;;;;;;4931659;28;93827;-27
2021/07/21 07:56:59;;;;;;;14.20;7.80;;;24.80;55.40;;;;;;4932062;28;93059;-24
2021/07/21 07:59:25;;;;;;;14.63;7.85;;;24.90;55.70;;;;;;4931391;28;92763;-23
2021/07/21 08:01:51;;;;;;;14.07;8.07;;;24.90;55.70;;;;;;4930702;28;92933;-24
2021/07/21 08:04:16;;;;;;;18.25;8.13;;;24.90;55.60;;;;;;4931658;28;92704;-23
2021/07/21 08:06:42;;;;;;;12.15;7.32;;;24.90;55.50;;;;;;4931937;28;93258;-25
2021/07/21 08:09:14;;;;;;;11.98;7.55;;;24.90;55.60;;;;;;4931174;28;93546;-31
2021/07/21 08:11:42;;;;;;;14.20;8.00;;;24.90;55.70;;;;;;4931868;28;92328;-24
2021/07/21 08:14:07;;;;;;;14.50;7.50;;;24.90;55.70;;;;;;4931657;28;92674;-24
2021/07/21 08:16:33;;;;;;;9.93;7.93;;;24.90;55.80;;;;;;4931357;28;92959;-21
2021/07/21 08:18:59;;;;;;;10.82;7.82;;;24.90;55.80;;;;;;4930722;28;93612;-22
2021/07/21 08:21:24;;;;;;;12.38;7.10;;;24.90;55.70;;;;;;4929672;28;93917;-24
2021/07/21 08:23:50;;;;;;;12.75;7.20;;;24.90;56.00;;;;;;4930608;28;93076;-25
2021/07/21 08:26:15;;;;;;;12.73;7.97;;;24.90;56.00;;;;;;4930601;28;92854;-25
2021/07/21 08:28:41;;;;;;;12.73;8.02;;;24.90;55.50;;;;;;4930194;28;93353;-25
2021/07/21 08:31:06;;;;;;;16.55;8.38;;;24.90;55.50;;;;;;4931310;28;93259;-22
2021/07/21 08:33:32;;;;;;;15.88;8.75;;;24.90;55.20;;;;;;4930043;28;92377;-24
2021/07/21 08:35:57;;;;;;;11.43;7.47;;;24.90;54.90;;;;;;4930662;28;92944;-25
2021/07/21 08:38:23;;;;;;;13.02;7.80;;;24.90;55.20;;;;;;4929368;28;93347;-24
2021/07/21 08:40:49;;;;;;;11.10;8.32;;;24.90;55.40;;;;;;4930704;28;92753;-26
2021/07/21 08:43:17;;;;;;;15.20;8.32;;;24.90;55.90;;;;;;4930445;28;93737;-23
2021/07/21 08:45:43;;;;;;;14.23;8.27;;;24.90;56.70;;;;;;4930654;28;92650;-24
2021/07/21 08:48:12;;;;;;;14.63;8.40;;;24.90;56.30;;;;;;4930372;28;93059;-24
2021/07/21 08:50:40;;;;;;;13.27;8.05;;;24.90;56.60;;;;;;4930731;28;93271;-30
2021/07/21 08:53:06;;;;;;;16.55;8.20;;;24.90;57.20;;;;;;4930556;28;93497;-24
2021/07/21 08:55:31;;;;;;;16.58;9.77;;;24.90;57.90;;;;;;4930048;28;92607;-23
2021/07/21 08:57:57;;;;;;;14.30;8.30;;;24.90;58.10;;;;;;4930705;28;93275;-23
2021/07/21 09:00:23;;;;;;;13.20;8.80;;;24.90;57.80;;;;;;4931056;28;92844;-25
2021/07/21 09:02:49;;;;;;;14.15;8.40;;;24.90;57.60;;;;;;4930634;28;92688;-24
2021/07/21 09:05:16;;;;;;;12.45;8.80;;;24.90;57.10;;;;;;4930061;28;92737;-24
2021/07/21 09:07:42;;;;;;;12.27;8.25;;;24.90;56.50;;;;;;4928905;28;95308;-24
2021/07/21 09:10:12;;;;;;;15.48;8.80;;;24.90;55.60;;;;;;4930146;28;93403;-21
2021/07/21 09:12:43;;;;;;;14.45;9.02;;;24.90;55.80;;;;;;4930727;28;92422;-24
2021/07/21 09:15:12;;;;;;;12.43;8.20;;;24.90;55.80;;;;;;4930120;28;92745;-20
2021/07/21 09:18:08;;;;;;;14.00;8.77;;;24.90;55.90;;;;;;4929758;28;93166;-23
2021/07/21 09:21:04;;;;;;;13.40;8.02;;;24.90;56.20;;;;;;4929158;28;93467;-23
2021/07/21 09:23:40;;;;;;;12.05;7.00;;;24.90;55.40;;;;;;4923616;28;92903;-24
2021/07/21 09:26:08;;;;;;;11.68;6.50;;;24.90;54.80;;;;;;4930341;28;92320;-23
2021/07/21 09:28:39;;;;;;;8.60;6.60;;;24.90;53.90;;;;;;4930575;28;93312;-25
2021/07/21 09:31:06;;;;;;;11.10;6.57;;;24.90;53.70;;;;;;4930192;28;92381;-24
2021/07/21 09:33:35;;;;;;;12.73;6.70;;;24.90;53.60;;;;;;4929642;28;93989;-22
2021/07/21 09:36:01;;;;;;;9.90;6.47;;;25.00;53.80;;;;;;4930645;28;92702;-23
2021/07/21 09:38:29;;;;;;;15.05;6.88;;;24.90;53.90;;;;;;4930250;28;95175;-22
2021/07/21 09:41:00;;;;;;;11.57;6.22;;;24.90;54.10;;;;;;4929688;28;94008;-24
2021/07/21 09:43:30;;;;;;;11.25;6.55;;;25.00;55.00;;;;;;4930635;28;93227;-23
2021/07/21 09:46:14;;;;;;;11.45;6.57;;;25.10;54.00;;;;;;4929334;28;93302;-23
2021/07/21 09:48:45;;;;;;;11.88;6.70;;;25.10;53.70;;;;;;4929963;28;92772;-25
2021/07/21 09:51:32;;;;;;;13.75;7.05;;;25.10;54.00;;;;;;4930156;28;93920;-25
2021/07/21 09:54:18;;;;;;;9.45;6.63;;;25.10;54.50;;;;;;4930641;28;93252;-27
2021/07/21 09:56:48;;;;;;;15.00;6.95;;;25.10;54.10;;;;;;4930060;28;93449;-24
2021/07/21 09:59:33;;;;;;;11.20;6.97;;;25.10;53.40;;;;;;4928621;28;95622;-22
2021/07/21 10:02:18;;;;;;;10.20;7.10;;;25.10;53.00;;;;;;4929355;28;93732;-24
2021/07/21 10:04:48;;;;;;;15.23;7.53;;;25.10;53.50;;;;;;4930022;28;93256;-24
2021/07/21 10:10:22;;;;;;;16.17;7.82;;;25.10;54.80;;;;;;4925599;28;94106;-23
2021/07/21 10:13:08;;;;;;;12.73;7.93;;;25.10;54.90;;;;;;4926698;28;92997;-24
2021/07/21 10:15:34;;;;;;;16.85;8.15;;;25.10;55.00;;;;;;4929463;28;92224;-21
2021/07/21 10:18:29;;;;;;;17.83;7.38;;;25.10;55.30;;;;;;4929665;28;92726;-24
2021/07/21 10:20:54;;;;;;;13.48;7.93;;;25.10;55.80;;;;;;4928062;28;93295;-23
2021/07/21 10:23:20;;;;;;;15.43;8.02;;;25.10;56.10;;;;;;4929210;28;93760;-24
2021/07/21 10:25:46;;;;;;;14.00;7.53;;;25.10;56.20;;;;;;4928187;28;93373;-21
2021/07/21 10:28:11;;;;;;;12.30;7.97;;;25.10;56.20;;;;;;4928091;28;92719;-25
2021/07/21 10:30:40;;;;;;;12.27;7.18;;;25.10;56.10;;;;;;4929046;28;93203;-23
2021/07/21 10:33:05;;;;;;;12.18;7.65;;;25.10;56.20;;;;;;4929733;28;92676;-24
2021/07/21 10:35:31;;;;;;;13.50;7.97;;;25.10;56.30;;;;;;4928191;28;92943;-21
2021/07/21 10:37:58;;;;;;;12.75;7.15;;;25.10;56.30;;;;;;4929272;28;92240;-25
2021/07/21 10:40:27;;;;;;;10.98;6.93;;;25.10;56.40;;;;;;4928666;28;95389;-22
2021/07/21 10:42:55;;;;;;;16.67;7.85;;;25.10;56.50;;;;;;4928554;28;93225;-25
2021/07/21 10:45:28;;;;;;;13.38;7.15;;;25.10;56.60;;;;;;4928148;28;92795;-31
2021/07/21 10:48:22;;;;;;;18.20;7.63;;;25.10;56.60;;;;;;4927905;28;93214;-24
2021/07/21 10:51:08;;;;;;;12.60;7.07;;;25.10;55.40;;;;;;4928113;28;94936;-18
2021/07/21 10:59:11;;;;;;;12.65;7.85;;;25.10;57.60;;;;;;4928422;28;92814;-24
2021/07/21 11:01:39;;;;;;;11.90;8.10;;;25.10;57.30;;;;;;4929051;28;93203;-24
2021/07/21 11:04:05;;;;;;;12.23;7.85;;;25.10;57.30;;;;;;4929074;28;93150;-20
2021/07/21 11:06:39;;;;;;;10.85;7.30;;;25.10;57.40;;;;;;4928265;28;92615;-25
2021/07/21 11:09:18;;;;;;;15.23;7.93;;;25.10;57.50;;;;;;4927968;28;92861;-24
2021/07/21 11:11:45;;;;;;;10.80;8.05;;;25.10;57.60;;;;;;4929107;28;92803;-23
2021/07/21 11:14:20;;;;;;;15.50;7.97;;;25.10;57.70;;;;;;4928820;28;93036;-17
2021/07/21 11:16:51;;;;;;;9.23;7.97;;;25.10;57.70;;;;;;4926553;28;93457;-20
2021/07/21 11:19:26;;;;;;;12.82;7.85;;;25.10;57.60;;;;;;4926535;28;92242;-19
2021/07/21 11:22:04;;;;;;;14.63;8.80;;;25.10;57.60;;;;;;4925696;28;94547;-22
2021/07/21 11:24:50;;;;;;;14.63;8.20;;;25.10;57.60;;;;;;4926110;28;92959;-22
2021/07/21 11:27:54;;;;;;;11.25;7.93;;;25.10;57.70;;;;;;4929050;28;92793;-22
2021/07/21 11:30:49;;;;;;;13.50;8.02;;;25.10;57.70;;;;;;4929403;28;93290;-23
2021/07/21 11:33:46;;;;;;;13.05;7.35;;;25.10;57.70;;;;;;4928674;28;93357;-19
2021/07/21 11:36:32;;;;;;;11.75;7.75;;;25.10;57.70;;;;;;4929348;28;93569;-21
2021/07/21 11:38:58;;;;;;;11.23;8.10;;;25.10;57.80;;;;;;4928614;28;93548;-18
2021/07/21 11:41:47;;;;;;;10.65;7.28;;;25.20;57.80;;;;;;4927420;28;92654;-23
2021/07/21 11:44:27;;;;;;;11.52;7.78;;;25.10;57.70;;;;;;4928027;28;94352;-22
2021/07/21 11:46:55;;;;;;;13.90;8.30;;;25.20;57.90;;;;;;4928584;28;93994;-24
2021/07/21 11:49:22;;;;;;;13.77;7.28;;;25.10;57.70;;;;;;4929120;28;93141;-18
2021/07/21 11:51:50;;;;;;;9.63;7.75;;;25.20;57.80;;;;;;4927760;28;93232;-23
2021/07/21 11:54:24;;;;;;;14.23;8.35;;;25.10;57.70;;;;;;4927751;28;93286;-23
2021/07/21 11:56:50;;;;;;;12.52;7.43;;;25.10;57.70;;;;;;4929028;28;93544;-21
2021/07/21 11:59:24;;;;;;;10.32;7.25;;;25.20;57.70;;;;;;4929146;28;92453;-22
2021/07/21 12:02:01;;;;;;;10.43;7.57;;;25.10;57.70;;;;;;4928815;28;91980;-20
2021/07/21 12:04:28;;;;;;;8.63;6.68;;;25.20;57.80;;;;;;4928465;28;93343;-23
2021/07/21 12:06:53;;;;;;;10.95;7.32;;;25.20;57.80;;;;;;4928733;28;93298;-19
2021/07/21 12:09:27;;;;;;;11.88;7.53;;;25.20;57.70;;;;;;4929174;28;93689;-25
2021/07/21 12:12:00;;;;;;;13.25;7.50;;;25.20;57.80;;;;;;4929258;28;93179;-24
2021/07/21 12:14:27;;;;;;;11.50;7.15;;;25.10;57.70;;;;;;4928515;28;93333;-23
2021/07/21 12:17:00;;;;;;;12.68;7.35;;;25.20;57.80;;;;;;4927572;28;93000;-23
2021/07/21 12:19:26;;;;;;;10.60;8.05;;;25.20;57.80;;;;;;4927889;28;92908;-23
2021/07/21 12:22:07;;;;;;;10.77;7.72;;;25.20;57.80;;;;;;4928284;28;93622;-22
2021/07/21 12:24:38;;;;;;;12.15;8.40;;;25.20;57.80;;;;;;4928377;28;92773;-23
2021/07/21 12:27:05;;;;;;;9.45;7.30;;;25.20;57.90;;;;;;4929074;28;93176;-24
2021/07/21 12:29:31;;;;;;;10.88;7.55;;;25.20;57.80;;;;;;4928639;28;92580;-18
2021/07/21 12:32:26;;;;;;;9.23;7.60;;;25.20;57.80;;;;;;4928969;28;92729;-23
2021/07/21 12:34:55;;;;;;;10.48;7.28;;;25.20;57.90;;;;;;4920783;28;94255;-24
2021/07/21 12:37:22;;;;;;;12.73;7.45;;;25.20;57.90;;;;;;4931221;28;94487;-24
2021/07/21 12:39:49;;;;;;;11.05;7.65;;;25.20;57.90;;;;;;4931998;28;92230;-24
2021/07/21 12:42:16;;;;;;;10.85;7.72;;;25.20;57.90;;;;;;4931538;28;92453;-21
2021/07/21 12:44:51;;;;;;;10.50;7.20;;;25.20;57.90;;;;;;4931433;28;93312;-25
2021/07/21 12:47:20;;;;;;;13.07;7.70;;;25.20;57.90;;;;;;4930711;28;92868;-24
2021/07/21 12:49:55;;;;;;;10.57;7.70;;;25.20;58.00;;;;;;4931592;28;92915;-21
2021/07/21 12:52:23;;;;;;;10.88;7.78;;;25.20;58.00;;;;;;4931074;28;91770;-23
2021/07/21 12:54:55;;;;;;;9.88;7.68;;;25.20;58.00;;;;;;4931266;28;93144;-21